Time;durP1;ratioP1;P1;durP2;ratioP2;P2;SDS_P1;SDS_P2;PMS_P1;PMS_P2;Temp;Humidity;BMP_temperature;BMP_pressure;BME280_temperature;BME280_humidity;BME280_pressure;Samples;Min_cycle;Max_cycle;Signal;HPM_P1;HPM_P2
2022/11/21 00:00:45;;;;;;;0.50;0.40;;;;;;;7.40;100.00;99270.53;5036337;28;20447;-57
2022/11/21 00:03:12;;;;;;;0.30;0.20;;;;;;;7.30;100.00;99271.78;5037761;28;20474;-57
2022/11/21 00:05:42;;;;;;;0.30;0.20;;;;;;;7.21;100.00;99270.28;5037422;28;20455;-57
2022/11/21 00:08:11;;;;;;;0.50;0.30;;;;;;;7.13;100.00;99262.59;5031083;28;20490;-57
2022/11/21 00:10:38;;;;;;;0.50;0.50;;;;;;;7.04;100.00;99249.66;5041139;28;20451;-57
2022/11/21 00:13:06;;;;;;;0.40;0.20;;;;;;;7.11;100.00;99251.19;5042685;28;20471;-56
2022/11/21 00:15:36;;;;;;;0.50;0.40;;;;;;;7.15;100.00;99259.91;5038062;28;20457;-57
2022/11/21 00:18:04;;;;;;;0.90;0.90;;;;;;;7.07;100.00;99254.00;5035909;28;20505;-57
2022/11/21 00:20:31;;;;;;;0.50;0.33;;;;;;;7.27;100.00;99251.59;5039857;28;20812;-57
2022/11/21 00:22:57;;;;;;;0.40;0.40;;;;;;;7.10;100.00;99252.09;5042270;28;20475;-57
2022/11/21 00:25:23;;;;;;;0.30;0.20;;;;;;;7.04;100.00;99257.59;5039671;28;20524;-56
2022/11/21 00:27:51;;;;;;;2.83;0.77;;;;;;;7.02;100.00;99258.56;5035837;28;20490;-57
2022/11/21 00:30:18;;;;;;;0.53;0.37;;;;;;;7.01;100.00;99254.19;5038811;28;20521;-56
2022/11/21 00:32:44;;;;;;;0.30;0.20;;;;;;;6.87;100.00;99256.41;5018135;28;20491;-57
2022/11/21 00:35:11;;;;;;;1.13;1.13;;;;;;;6.77;100.00;99255.78;5039913;28;20509;-57
2022/11/21 00:37:37;;;;;;;3.23;0.50;;;;;;;6.46;100.00;99251.41;5017820;28;20510;-57
2022/11/21 00:40:04;;;;;;;0.50;0.50;;;;;;;6.52;100.00;99251.22;5037978;28;20456;-57
2022/11/21 00:42:31;;;;;;;0.47;0.47;;;;;;;6.33;100.00;99242.13;5041983;28;20984;-56
2022/11/21 00:44:57;;;;;;;0.50;0.30;;;;;;;6.42;100.00;99249.75;5040104;28;20458;-56
2022/11/21 00:47:23;;;;;;;0.57;0.57;;;;;;;6.61;100.00;99244.81;5035199;28;20451;-57
2022/11/21 00:49:50;;;;;;;10.30;0.90;;;;;;;6.55;100.00;99247.63;5037274;28;20451;-56
2022/11/21 00:52:17;;;;;;;0.40;0.30;;;;;;;6.53;100.00;99247.69;5042087;28;20482;-57
2022/11/21 00:54:43;;;;;;;0.40;0.33;;;;;;;6.54;100.00;99248.53;5040077;28;20454;-57
2022/11/21 00:57:10;;;;;;;0.40;0.40;;;;;;;6.51;100.00;99252.13;5034815;28;20455;-57
2022/11/21 00:59:36;;;;;;;1.43;1.13;;;;;;;6.69;100.00;99242.81;5037037;28;20444;-57
2022/11/21 01:02:04;;;;;;;12.73;0.83;;;;;;;6.51;100.00;99240.72;5029766;28;20475;-56
2022/11/21 01:04:34;;;;;;;0.30;0.20;;;;;;;6.41;100.00;99228.69;5039956;28;20454;-56
2022/11/21 01:07:00;;;;;;;0.50;0.37;;;;;;;6.53;100.00;99238.88;5025004;28;20521;-57
2022/11/21 01:09:27;;;;;;;0.30;0.20;;;;;;;6.37;100.00;99238.47;5040609;28;20494;-56
2022/11/21 01:11:55;;;;;;;0.30;0.20;;;;;;;6.32;100.00;99229.84;5036355;28;20477;-57
2022/11/21 01:14:21;;;;;;;8.23;1.07;;;;;;;6.23;100.00;99241.50;5040019;28;20953;-57
2022/11/21 01:16:52;;;;;;;2.00;1.23;;;;;;;6.15;100.00;99243.47;5045150;28;20455;-57
2022/11/21 01:19:18;;;;;;;0.50;0.40;;;;;;;6.26;100.00;99248.47;5044958;28;20544;-56
2022/11/21 01:21:45;;;;;;;1.17;0.40;;;;;;;6.38;100.00;99234.91;5038516;28;20474;-57
2022/11/21 01:24:11;;;;;;;3.67;0.50;;;;;;;6.51;100.00;99243.34;5038816;28;20463;-56
2022/11/21 01:26:38;;;;;;;0.30;0.30;;;;;;;6.51;100.00;99241.59;5045107;28;20455;-56
2022/11/21 01:29:06;;;;;;;0.50;0.50;;;;;;;6.63;100.00;99234.22;5045233;28;20841;-56
2022/11/21 01:31:32;;;;;;;1.47;1.10;;;;;;;6.61;100.00;99231.63;5025449;28;20484;-56
2022/11/21 01:33:59;;;;;;;0.43;0.40;;;;;;;6.58;100.00;99221.16;5025766;28;20471;-56
2022/11/21 01:36:32;;;;;;;0.30;0.20;;;;;;;6.53;100.00;99230.97;5025595;28;20546;-56
2022/11/21 01:39:01;;;;;;;2.33;0.73;;;;;;;6.48;100.00;99228.47;5038121;28;20448;-56
2022/11/21 01:41:32;;;;;;;0.30;0.20;;;;;;;6.12;100.00;99233.00;5044293;28;20472;-56
2022/11/21 01:44:00;;;;;;;0.40;0.40;;;;;;;6.20;100.00;99238.97;5044633;28;20978;-56
2022/11/21 01:46:26;;;;;;;0.40;0.37;;;;;;;6.26;100.00;99237.03;5040362;28;20455;-56
2022/11/21 01:49:10;;;;;;;0.47;0.40;;;;;;;6.14;100.00;99240.88;5037807;28;20502;-57
2022/11/21 01:51:44;;;;;;;0.30;0.20;;;;;;;6.04;100.00;99229.75;5039746;28;20468;-56
2022/11/21 01:54:26;;;;;;;0.30;0.30;;;;;;;6.06;100.00;99234.97;5044547;28;20447;-57
2022/11/21 01:57:08;;;;;;;0.80;0.80;;;;;;;6.23;100.00;99232.72;5045067;28;20447;-56
2022/11/21 01:59:53;;;;;;;0.30;0.20;;;;;;;6.36;100.00;99238.53;5031198;28;20450;-56
2022/11/21 02:02:23;;;;;;;0.63;0.40;;;;;;;6.39;100.00;99236.66;5038337;28;20471;-57
2022/11/21 02:04:51;;;;;;;0.30;0.20;;;;;;;6.27;100.00;99233.50;5037454;28;20521;-56
2022/11/21 02:07:21;;;;;;;0.60;0.60;;;;;;;6.30;100.00;99236.91;5046957;28;20463;-56
2022/11/21 02:09:53;;;;;;;0.30;0.20;;;;;;;6.42;100.00;99243.59;5037911;28;20501;-56
2022/11/21 02:12:28;;;;;;;1.13;0.90;;;;;;;6.44;100.00;99245.31;5041409;28;20472;-57
2022/11/21 02:14:56;;;;;;;12.03;0.83;;;;;;;6.42;100.00;99239.19;5044303;28;20455;-56
2022/11/21 02:17:24;;;;;;;10.33;1.83;;;;;;;6.51;100.00;99241.59;5042151;28;20513;-56
2022/11/21 02:19:58;;;;;;;0.30;0.20;;;;;;;6.49;100.00;99245.19;5019894;28;20562;-56
2022/11/21 02:22:48;;;;;;;0.70;0.67;;;;;;;6.46;100.00;99242.63;5037969;28;20571;-56
2022/11/21 02:25:19;;;;;;;0.60;0.53;;;;;;;6.50;100.00;99250.41;5029957;28;20455;-56
2022/11/21 02:27:48;;;;;;;0.40;0.40;;;;;;;6.51;100.00;99235.44;5037129;28;20873;-57
2022/11/21 02:30:16;;;;;;;0.40;0.40;;;;;;;6.60;100.00;99243.09;5039778;28;20505;-56
2022/11/21 02:32:45;;;;;;;0.40;0.20;;;;;;;6.50;100.00;99239.84;5003722;28;20541;-53
2022/11/21 02:35:14;;;;;;;0.40;0.40;;;;;;;6.60;100.00;99235.19;5042094;28;20581;-54
2022/11/21 02:37:43;;;;;;;3.03;2.00;;;;;;;6.59;100.00;99236.09;5019205;28;20849;-53
2022/11/21 02:40:20;;;;;;;9.73;0.63;;;;;;;6.59;100.00;99241.38;5037804;28;20451;-55
2022/11/21 02:43:12;;;;;;;3.33;0.70;;;;;;;6.60;100.00;99231.69;5043144;28;20471;-55
2022/11/21 02:45:41;;;;;;;0.40;0.30;;;;;;;6.55;100.00;99234.44;5044104;28;21261;-54
2022/11/21 02:48:08;;;;;;;0.30;0.20;;;;;;;6.39;100.00;99234.00;5041048;28;20486;-53
2022/11/21 02:50:37;;;;;;;3.70;0.70;;;;;;;6.33;100.00;99230.69;5036338;28;20961;-53
2022/11/21 02:53:05;;;;;;;0.53;0.53;;;;;;;6.29;100.00;99221.97;5038948;28;21002;-52
2022/11/21 02:55:31;;;;;;;6.90;0.50;;;;;;;6.34;100.00;99224.50;5043129;28;20903;-53
2022/11/21 02:57:58;;;;;;;2.10;0.53;;;;;;;6.38;100.00;99229.66;5041957;28;20520;-53
2022/11/21 03:00:31;;;;;;;0.40;0.30;;;;;;;6.24;100.00;99226.53;5036054;28;20466;-53
2022/11/21 03:02:58;;;;;;;3.83;1.80;;;;;;;6.23;100.00;99228.31;5026046;28;20475;-54
2022/11/21 03:05:24;;;;;;;3.13;1.03;;;;;;;6.29;100.00;99229.91;5042813;28;20488;-53
2022/11/21 03:07:50;;;;;;;0.50;0.30;;;;;;;6.21;100.00;99230.13;5025462;28;20464;-55
2022/11/21 03:10:17;;;;;;;0.30;0.20;;;;;;;6.17;100.00;99231.13;5042966;28;20502;-53
2022/11/21 03:12:43;;;;;;;0.63;0.63;;;;;;;6.11;100.00;99230.41;5042573;28;20474;-55
2022/11/21 03:15:12;;;;;;;11.33;0.80;;;;;;;6.15;100.00;99234.69;5036136;28;20942;-53
2022/11/21 03:17:39;;;;;;;0.40;0.37;;;;;;;6.15;100.00;99237.34;5036146;28;20463;-55
2022/11/21 03:20:06;;;;;;;0.30;0.20;;;;;;;6.06;100.00;99242.88;5042710;28;20467;-53
2022/11/21 03:22:33;;;;;;;2.50;0.50;;;;;;;6.17;100.00;99246.97;5042697;28;20524;-53
2022/11/21 03:25:00;;;;;;;1.23;1.13;;;;;;;6.18;100.00;99243.41;5036273;28;20450;-53
2022/11/21 03:27:26;;;;;;;0.30;0.27;;;;;;;6.23;100.00;99244.13;5036106;28;20467;-56
2022/11/21 03:29:53;;;;;;;0.57;0.57;;;;;;;6.21;100.00;99239.81;5042062;28;20499;-53
2022/11/21 03:32:19;;;;;;;0.63;0.50;;;;;;;6.30;100.00;99243.94;5018532;28;20495;-54
2022/11/21 03:34:45;;;;;;;0.30;0.20;;;;;;;6.39;100.00;99247.22;5026433;28;20456;-54
2022/11/21 03:37:12;;;;;;;0.63;0.60;;;;;;;6.42;100.00;99239.19;5042397;28;20454;-53
2022/11/21 03:39:38;;;;;;;0.30;0.20;;;;;;;6.48;100.00;99239.03;5036745;28;20447;-53
2022/11/21 03:42:04;;;;;;;0.30;0.20;;;;;;;6.51;100.00;99236.31;5036054;28;20472;-54
2022/11/21 03:44:31;;;;;;;22.93;1.37;;;;;;;6.61;100.00;99230.75;5041701;28;20452;-54
2022/11/21 03:46:57;;;;;;;0.50;0.50;;;;;;;6.64;100.00;99235.94;5042212;28;20477;-53
2022/11/21 03:49:24;;;;;;;0.30;0.20;;;;;;;6.71;100.00;99235.69;5036443;28;20494;-55
2022/11/21 03:51:50;;;;;;;0.20;0.10;;;;;;;6.80;100.00;99229.28;5034906;28;20526;-54
2022/11/21 03:54:16;;;;;;;1.37;0.70;;;;;;;6.84;100.00;99229.13;5041511;28;20501;-53
2022/11/21 03:56:43;;;;;;;0.30;0.23;;;;;;;6.88;100.00;99242.28;5042986;28;20833;-54
2022/11/21 03:59:09;;;;;;;0.40;0.30;;;;;;;7.05;100.00;99232.03;5041195;28;20465;-53
2022/11/21 04:01:36;;;;;;;0.30;0.20;;;;;;;6.98;100.00;99227.84;5030336;28;20477;-54
2022/11/21 04:04:03;;;;;;;0.40;0.30;;;;;;;7.05;100.00;99230.25;5037034;28;20446;-53
2022/11/21 04:06:30;;;;;;;5.10;0.40;;;;;;;7.09;100.00;99236.31;5029743;28;20511;-55
2022/11/21 04:08:57;;;;;;;1.30;0.30;;;;;;;7.27;100.00;99232.22;5037140;28;20486;-55
2022/11/21 04:11:23;;;;;;;0.40;0.30;;;;;;;7.24;100.00;99232.31;5017529;28;20563;-53
2022/11/21 04:13:51;;;;;;;0.30;0.20;;;;;;;7.17;100.00;99229.00;5040396;28;20457;-54
2022/11/21 04:16:18;;;;;;;0.30;0.20;;;;;;;7.33;100.00;99232.88;5041906;28;21049;-55
2022/11/21 04:18:44;;;;;;;0.43;0.23;;;;;;;7.21;100.00;99228.00;5037567;28;20493;-53
2022/11/21 04:21:10;;;;;;;0.30;0.30;;;;;;;7.30;100.00;99218.91;5034863;28;20973;-55
2022/11/21 04:23:37;;;;;;;0.40;0.40;;;;;;;7.33;100.00;99216.16;5039587;28;20908;-53
2022/11/21 04:26:03;;;;;;;0.40;0.40;;;;;;;7.49;100.00;99221.81;5041924;28;20462;-55
2022/11/21 04:28:30;;;;;;;0.73;0.30;;;;;;;7.54;100.00;99217.22;5037266;28;20462;-53
2022/11/21 04:31:04;;;;;;;0.30;0.20;;;;;;;7.83;100.00;99222.41;5032332;28;20460;-53
2022/11/21 04:33:36;;;;;;;0.30;0.20;;;;;;;7.83;100.00;99216.25;5030588;28;20534;-54
2022/11/21 04:36:03;;;;;;;0.30;0.30;;;;;;;7.69;100.00;99232.59;5035203;28;20474;-53
2022/11/21 04:38:29;;;;;;;0.97;0.40;;;;;;;7.62;100.00;99224.00;5037538;28;20456;-54
2022/11/21 04:40:55;;;;;;;0.43;0.43;;;;;;;7.89;100.00;99229.25;5041835;28;20451;-53
2022/11/21 04:43:22;;;;;;;0.87;0.40;;;;;;;7.79;100.00;99225.19;5039443;28;20532;-53
2022/11/21 04:45:48;;;;;;;2.07;0.33;;;;;;;7.77;100.00;99224.38;5035275;28;20455;-54
2022/11/21 04:48:15;;;;;;;0.30;0.20;;;;;;;7.63;100.00;99224.84;5041074;28;20467;-53
2022/11/21 04:50:41;;;;;;;0.30;0.20;;;;;;;7.62;100.00;99220.47;5045923;28;20495;-55
2022/11/21 04:53:07;;;;;;;0.30;0.20;;;;;;;7.52;100.00;99222.56;5026078;28;20500;-54
2022/11/21 04:55:34;;;;;;;0.50;0.30;;;;;;;7.53;100.00;99221.63;5039096;28;21005;-58
2022/11/21 04:58:00;;;;;;;0.70;0.70;;;;;;;7.63;100.00;99227.50;5041381;28;20455;-53
2022/11/21 05:00:27;;;;;;;0.30;0.20;;;;;;;7.76;100.00;99234.09;5037108;28;20448;-54
2022/11/21 05:02:53;;;;;;;0.97;0.30;;;;;;;7.73;100.00;99245.66;5029121;28;20482;-54
2022/11/21 05:05:19;;;;;;;4.83;0.40;;;;;;;7.68;100.00;99234.38;5045635;28;20513;-53
2022/11/21 05:07:46;;;;;;;0.30;0.20;;;;;;;7.73;100.00;99243.00;5027579;28;20467;-55
2022/11/21 05:10:12;;;;;;;0.40;0.40;;;;;;;7.68;100.00;99238.81;5044968;28;20499;-53
2022/11/21 05:15:23;;;;;;;3.13;0.50;;;;;;;7.75;100.00;99247.38;5028772;28;20450;-54
2022/11/21 05:17:51;;;;;;;0.50;0.50;;;;;;;7.97;100.00;99246.59;5038576;28;20501;-53
2022/11/21 05:20:17;;;;;;;0.40;0.23;;;;;;;7.79;100.00;99241.06;5025418;28;20747;-53
2022/11/21 05:22:48;;;;;;;0.30;0.20;;;;;;;7.82;100.00;99233.03;5044588;28;20475;-53
2022/11/21 05:25:15;;;;;;;0.30;0.20;;;;;;;7.81;100.00;99233.94;5041378;28;20947;-53
2022/11/21 05:27:42;;;;;;;0.30;0.20;;;;;;;7.65;100.00;99230.94;5038225;28;20458;-54
2022/11/21 05:30:10;;;;;;;0.40;0.30;;;;;;;7.63;100.00;99233.66;5042104;28;20959;-54
2022/11/21 05:32:36;;;;;;;3.20;0.80;;;;;;;7.57;100.00;99225.06;5021356;28;20519;-53
2022/11/21 05:35:03;;;;;;;0.40;0.30;;;;;;;7.81;100.00;99224.25;5042002;28;20821;-53
2022/11/21 05:37:29;;;;;;;0.30;0.20;;;;;;;7.73;100.00;99226.28;5037701;28;20940;-55
2022/11/21 05:39:56;;;;;;;0.40;0.30;;;;;;;7.53;100.00;99226.06;5041412;28;20452;-54
2022/11/21 05:43:44;;;;;;;0.40;0.40;;;;;;;7.50;100.00;99228.81;5044995;28;20471;-53
2022/11/21 05:45:09;;;;;;;0.30;0.20;;;;;;;7.50;100.00;99226.19;5044562;28;20450;-55
2022/11/21 05:47:35;;;;;;;0.30;0.20;;;;;;;7.41;100.00;99230.88;5025299;28;20455;-53
2022/11/21 05:50:01;;;;;;;0.50;0.30;;;;;;;7.36;100.00;99231.91;5020060;28;20965;-54
2022/11/21 05:52:28;;;;;;;0.30;0.20;;;;;;;7.64;100.00;99229.22;5044590;28;20478;-52
2022/11/21 05:54:54;;;;;;;0.30;0.20;;;;;;;7.30;100.00;99242.69;5044696;28;20450;-54
2022/11/21 05:57:21;;;;;;;0.63;0.43;;;;;;;7.49;100.00;99235.03;5038781;28;20462;-53
2022/11/21 05:59:47;;;;;;;0.30;0.20;;;;;;;7.34;100.00;99233.75;5036420;28;20505;-56
2022/11/21 06:04:58;;;;;;;1.73;0.60;;;;;;;7.60;100.00;99235.53;5044578;28;20450;-53
2022/11/21 06:07:25;;;;;;;0.30;0.10;;;;;;;7.47;100.00;99244.78;5026609;28;20459;-53
2022/11/21 06:09:51;;;;;;;0.30;0.20;;;;;;;7.61;100.00;99248.72;5044401;28;20532;-56
2022/11/21 06:12:17;;;;;;;0.30;0.20;;;;;;;7.69;100.00;99243.19;5041413;28;20501;-53
2022/11/21 06:14:50;;;;;;;1.03;0.20;;;;;;;7.46;100.00;99251.00;5038092;28;20497;-53
2022/11/21 06:17:17;;;;;;;0.57;0.47;;;;;;;7.52;100.00;99249.00;5041258;28;20456;-55
2022/11/21 06:19:43;;;;;;;0.70;0.47;;;;;;;7.56;100.00;99237.44;5044084;28;20498;-53
2022/11/21 06:22:09;;;;;;;0.30;0.30;;;;;;;7.52;100.00;99241.06;5040677;28;20998;-53
2022/11/21 06:24:36;;;;;;;0.30;0.20;;;;;;;7.52;100.00;99248.13;5037154;28;20457;-55
2022/11/21 06:27:02;;;;;;;0.73;0.73;;;;;;;7.54;100.00;99233.06;5040452;28;20455;-53
2022/11/21 06:29:28;;;;;;;1.53;1.33;;;;;;;7.45;100.00;99236.91;5043856;28;21075;-57
2022/11/21 06:31:55;;;;;;;7.83;0.40;;;;;;;7.47;100.00;99232.44;5021990;28;20483;-55
2022/11/21 06:34:21;;;;;;;0.40;0.40;;;;;;;7.40;100.00;99226.50;5041040;28;20981;-53
2022/11/21 06:36:48;;;;;;;0.50;0.50;;;;;;;7.34;100.00;99231.09;5040626;28;20463;-54
2022/11/21 06:39:15;;;;;;;0.37;0.27;;;;;;;7.42;100.00;99234.38;5036839;28;20990;-55
2022/11/21 06:41:41;;;;;;;0.40;0.30;;;;;;;7.35;100.00;99222.25;5022308;28;20480;-53
2022/11/21 06:44:07;;;;;;;0.30;0.20;;;;;;;7.27;100.00;99224.31;5043563;28;20901;-56
2022/11/21 06:46:34;;;;;;;0.30;0.20;;;;;;;7.33;100.00;99222.31;5040925;28;20455;-53
2022/11/21 06:49:00;;;;;;;4.00;0.43;;;;;;;7.35;100.00;99233.69;5036727;28;20459;-55
2022/11/21 06:51:27;;;;;;;0.30;0.30;;;;;;;7.36;100.00;99235.41;5039646;28;20479;-55
2022/11/21 06:53:56;;;;;;;0.30;0.20;;;;;;;7.15;100.00;99235.28;5043351;28;20456;-53
2022/11/21 06:56:24;;;;;;;0.63;0.40;;;;;;;7.00;100.00;99239.25;5041124;28;20488;-55
2022/11/21 06:58:51;;;;;;;0.33;0.20;;;;;;;6.98;100.00;99239.28;5031787;28;20444;-52
2022/11/21 07:01:18;;;;;;;0.60;0.50;;;;;;;6.89;100.00;99238.72;5033056;28;20997;-54
2022/11/21 07:03:44;;;;;;;0.40;0.30;;;;;;;6.84;100.00;99239.69;5033991;28;20488;-54
2022/11/21 07:06:11;;;;;;;0.33;0.27;;;;;;;6.56;100.00;99232.66;5035009;28;21032;-53
2022/11/21 07:08:39;;;;;;;0.40;0.20;;;;;;;6.51;100.00;99241.59;5033692;28;21005;-55
2022/11/21 07:11:08;;;;;;;0.40;0.40;;;;;;;6.50;100.00;99239.84;5037095;28;20490;-53
2022/11/21 07:13:50;;;;;;;0.50;0.50;;;;;;;6.40;100.00;99243.66;5026257;28;20462;-54
2022/11/21 07:16:17;;;;;;;0.97;0.77;;;;;;;6.46;100.00;99251.41;5036425;28;20883;-55
2022/11/21 07:18:44;;;;;;;0.40;0.30;;;;;;;6.64;100.00;99252.66;5041748;28;20456;-54
2022/11/21 07:21:10;;;;;;;0.60;0.60;;;;;;;6.60;100.00;99256.31;5042805;28;20873;-54
2022/11/21 07:23:37;;;;;;;2.70;0.43;;;;;;;6.60;100.00;99253.66;5037521;28;20482;-56
2022/11/21 07:26:06;;;;;;;0.30;0.20;;;;;;;6.69;100.00;99261.28;5036189;28;20569;-53
2022/11/21 07:28:33;;;;;;;0.40;0.30;;;;;;;6.74;100.00;99247.97;5040882;28;20953;-53
2022/11/21 07:31:03;;;;;;;0.50;0.50;;;;;;;6.81;100.00;99260.06;5027875;28;20587;-55
2022/11/21 07:33:37;;;;;;;3.00;1.23;;;;;;;6.85;100.00;99266.97;5030096;28;20446;-56
2022/11/21 07:36:04;;;;;;;0.30;0.20;;;;;;;6.88;100.00;99268.69;5035854;28;20462;-55
2022/11/21 07:38:30;;;;;;;0.83;0.83;;;;;;;6.94;100.00;99274.63;5028839;28;20453;-54
2022/11/21 07:40:56;;;;;;;2.30;0.57;;;;;;;7.01;100.00;99275.31;5030313;28;20462;-53
2022/11/21 07:43:23;;;;;;;0.73;0.60;;;;;;;7.16;100.00;99269.56;5038945;28;20846;-53
2022/11/21 07:45:49;;;;;;;6.03;0.90;;;;;;;7.21;100.00;99267.63;5042469;28;20463;-55
2022/11/21 07:48:16;;;;;;;0.63;0.50;;;;;;;7.22;100.00;99260.56;5039893;28;20462;-54
2022/11/21 07:50:42;;;;;;;8.47;0.87;;;;;;;7.32;100.00;99259.38;5035734;28;20490;-53
2022/11/21 07:53:12;;;;;;;0.33;0.33;;;;;;;7.41;100.00;99259.94;5037938;28;20492;-55
2022/11/21 07:55:38;;;;;;;2.53;1.30;;;;;;;7.33;100.00;99269.03;5042784;28;20455;-53
2022/11/21 07:58:08;;;;;;;0.63;0.63;;;;;;;7.46;100.00;99259.78;5040953;28;20450;-55
2022/11/21 08:00:37;;;;;;;0.73;0.73;;;;;;;7.68;100.00;99259.97;5035700;28;20454;-54
2022/11/21 08:03:05;;;;;;;0.73;0.40;;;;;;;7.59;100.00;99266.41;5024226;28;20475;-54
2022/11/21 08:05:36;;;;;;;0.30;0.30;;;;;;;7.65;100.00;99252.97;5022483;28;20565;-53
2022/11/21 08:08:04;;;;;;;3.30;1.17;;;;;;;7.67;100.00;99259.06;5043721;28;20458;-53
2022/11/21 08:10:31;;;;;;;10.10;1.60;;;;;;;7.73;100.00;99260.66;5036868;28;20490;-54
2022/11/21 08:12:57;;;;;;;0.40;0.40;;;;;;;7.90;100.00;99254.78;5035373;28;20481;-55
2022/11/21 08:15:23;;;;;;;0.40;0.40;;;;;;;7.91;100.00;99257.38;5041362;28;20531;-53
2022/11/21 08:17:50;;;;;;;1.50;1.20;;;;;;;8.19;100.00;99259.91;5042089;28;20455;-55
2022/11/21 08:20:16;;;;;;;0.50;0.43;;;;;;;7.91;100.00;99260.03;5037266;28;20534;-53
2022/11/21 08:22:43;;;;;;;0.60;0.60;;;;;;;7.99;100.00;99257.13;5034589;28;21027;-55
2022/11/21 08:25:10;;;;;;;14.93;0.33;;;;;;;8.21;100.00;99262.50;5040422;28;20458;-54
2022/11/21 08:27:38;;;;;;;0.97;0.90;;;;;;;8.17;100.00;99260.91;5042188;28;20454;-53
2022/11/21 08:30:07;;;;;;;0.33;0.23;;;;;;;8.02;100.00;99263.16;5037664;28;20490;-53
2022/11/21 08:32:33;;;;;;;1.03;0.30;;;;;;;8.07;100.00;99262.13;5035915;28;21027;-56
2022/11/21 08:35:00;;;;;;;0.40;0.30;;;;;;;8.27;100.00;99262.31;5040066;28;20455;-56
2022/11/21 08:37:28;;;;;;;0.30;0.20;;;;;;;8.13;100.00;99264.59;5041967;28;20450;-57
2022/11/21 08:39:57;;;;;;;0.40;0.30;;;;;;;8.25;100.00;99265.00;5038874;28;20453;-57
2022/11/21 08:42:28;;;;;;;2.20;0.50;;;;;;;8.21;100.00;99262.50;5036424;28;20471;-56
2022/11/21 08:44:54;;;;;;;2.63;0.40;;;;;;;8.30;100.00;99264.84;5038419;28;20452;-56
2022/11/21 08:47:21;;;;;;;3.40;1.03;;;;;;;8.23;100.00;99264.22;5042214;28;20812;-56
2022/11/21 08:49:47;;;;;;;6.00;0.33;;;;;;;8.27;100.00;99257.00;5039207;28;20455;-56
2022/11/21 08:52:16;;;;;;;0.40;0.30;;;;;;;8.38;100.00;99252.25;5035144;28;20471;-57
2022/11/21 08:54:43;;;;;;;0.53;0.53;;;;;;;8.32;100.00;99249.75;5037862;28;20452;-56
2022/11/21 08:57:10;;;;;;;6.63;0.60;;;;;;;8.53;100.00;99250.81;5041935;28;20506;-56
2022/11/21 08:59:36;;;;;;;6.43;0.50;;;;;;;8.43;100.00;99244.13;5028958;28;20458;-57
2022/11/21 09:02:03;;;;;;;0.40;0.30;;;;;;;8.46;100.00;99255.44;5030754;28;20530;-57
2022/11/21 09:04:29;;;;;;;0.30;0.30;;;;;;;8.44;100.00;99240.53;5040894;28;20748;-56
2022/11/21 09:06:56;;;;;;;0.57;0.30;;;;;;;8.76;100.00;99252.56;5026367;28;20487;-56
2022/11/21 09:09:22;;;;;;;0.70;0.47;;;;;;;8.97;100.00;99248.25;5040847;28;20451;-57
2022/11/21 09:11:51;;;;;;;0.40;0.40;;;;;;;9.07;99.68;99254.94;5034979;28;20915;-57
2022/11/21 09:19:47;;;;;;;1.27;0.43;;;;;;;9.06;98.96;99246.13;5035698;28;20529;-56
2022/11/21 09:22:15;;;;;;;0.40;0.30;;;;;;;9.23;97.39;99241.94;5037810;28;20482;-57
2022/11/21 09:24:41;;;;;;;0.53;0.53;;;;;;;9.15;95.94;99243.09;5042295;28;20458;-56
2022/11/21 09:27:07;;;;;;;0.60;0.60;;;;;;;9.15;96.20;99237.78;5039385;28;20484;-56
2022/11/21 09:29:34;;;;;;;0.30;0.20;;;;;;;9.22;96.49;99234.91;5035546;28;20450;-56
2022/11/21 09:32:00;;;;;;;0.40;0.20;;;;;;;9.09;97.07;99218.63;5037233;28;20511;-56
2022/11/21 09:34:27;;;;;;;0.60;0.50;;;;;;;9.19;96.02;99218.19;5030495;28;20508;-56
2022/11/21 09:36:54;;;;;;;0.40;0.30;;;;;;;9.25;95.92;99210.91;5044855;28;20483;-56
2022/11/21 09:39:21;;;;;;;0.60;0.57;;;;;;;9.21;95.12;99210.19;5038689;28;20454;-56
2022/11/21 09:41:59;;;;;;;0.30;0.20;;;;;;;9.20;95.79;99211.97;5040812;28;20479;-56
2022/11/21 09:44:43;;;;;;;0.40;0.30;;;;;;;9.50;94.26;99204.53;5045879;28;20447;-56
2022/11/21 09:47:31;;;;;;;3.17;1.40;;;;;;;9.13;95.15;99209.59;5045572;28;20451;-56
2022/11/21 09:50:16;;;;;;;0.40;0.20;;;;;;;9.33;95.72;99212.34;5043960;28;20805;-56
2022/11/21 09:53:12;;;;;;;0.50;0.40;;;;;;;9.30;95.09;99209.78;5044339;28;20471;-56
2022/11/21 09:55:43;;;;;;;0.70;0.70;;;;;;;9.14;95.25;99206.91;5043312;28;21026;-56
2022/11/21 09:58:36;;;;;;;0.30;0.20;;;;;;;9.29;95.52;99202.75;5044265;28;20450;-56
2022/11/21 10:01:03;;;;;;;0.50;0.30;;;;;;;9.23;95.82;99208.31;5027267;28;20451;-56
2022/11/21 10:03:39;;;;;;;0.30;0.20;;;;;;;9.19;95.62;99201.44;5041992;28;20828;-56
2022/11/21 10:06:11;;;;;;;0.53;0.53;;;;;;;9.39;94.83;99197.94;5041086;28;20442;-55
2022/11/21 10:08:57;;;;;;;0.40;0.30;;;;;;;9.32;96.16;99183.19;5044758;28;20456;-56
2022/11/21 10:14:47;;;;;;;0.30;0.20;;;;;;;9.50;93.54;99185.97;5045399;28;20458;-56
2022/11/21 10:17:38;;;;;;;0.37;0.27;;;;;;;9.50;94.34;99193.06;5041437;28;20454;-56
2022/11/21 10:20:13;;;;;;;0.40;0.40;;;;;;;9.62;94.12;99192.56;5038468;28;20937;-56
2022/11/21 10:23:01;;;;;;;0.63;0.60;;;;;;;9.60;91.59;99191.75;5037856;28;20490;-55
2022/11/21 10:25:38;;;;;;;0.37;0.27;;;;;;;9.37;92.39;99186.53;5041007;28;20451;-56
2022/11/21 10:28:27;;;;;;;7.20;0.80;;;;;;;9.53;93.53;99170.84;5044775;28;20489;-55
2022/11/21 10:30:55;;;;;;;0.53;0.50;;;;;;;9.43;94.70;99168.56;5044240;28;20494;-55
2022/11/21 10:33:33;;;;;;;35.43;1.17;;;;;;;9.79;94.59;99163.50;5022274;28;20498;-55
2022/11/21 10:36:19;;;;;;;2.00;0.63;;;;;;;9.65;94.49;99160.56;5037683;28;20454;-56
2022/11/21 10:38:49;;;;;;;11.37;0.53;;;;;;;9.74;93.77;99161.97;5037765;28;20479;-56
2022/11/21 10:41:41;;;;;;;4.67;1.13;;;;;;;9.86;93.74;99155.25;5043329;28;20458;-56
2022/11/21 10:47:15;;;;;;;0.40;0.30;;;;;;;9.83;92.76;99150.09;5044369;28;20500;-56
2022/11/21 10:49:45;;;;;;;2.57;0.77;;;;;;;9.76;92.57;99142.41;5041743;28;20477;-56
2022/11/21 10:52:20;;;;;;;0.40;0.30;;;;;;;9.77;92.79;99143.25;5036897;28;21016;-56
2022/11/21 10:55:02;;;;;;;1.07;1.07;;;;;;;9.85;91.62;99130.50;5038922;28;20451;-56
2022/11/21 10:57:45;;;;;;;1.23;0.90;;;;;;;9.95;93.51;99133.63;5025746;28;20565;-56
2022/11/21 11:00:11;;;;;;;0.60;0.60;;;;;;;9.71;93.86;99127.59;5036422;28;20444;-56
2022/11/21 11:02:40;;;;;;;0.53;0.47;;;;;;;9.93;92.58;99123.06;5029012;28;20477;-56
2022/11/21 11:05:15;;;;;;;1.00;0.60;;;;;;;9.99;91.84;99125.44;5044459;28;20451;-56
2022/11/21 11:07:57;;;;;;;0.50;0.40;;;;;;;9.79;92.26;99118.38;5026639;28;20462;-56
2022/11/21 11:10:24;;;;;;;4.10;0.60;;;;;;;9.79;92.22;99121.03;5023890;28;20447;-56
2022/11/21 11:16:11;;;;;;;0.50;0.37;;;;;;;9.83;92.59;99112.94;5037843;28;20964;-56
2022/11/21 11:18:45;;;;;;;0.30;0.30;;;;;;;9.79;92.30;99099.81;5025304;28;20500;-56
2022/11/21 11:21:20;;;;;;;2.23;1.27;;;;;;;10.10;92.45;99093.97;5036451;28;20447;-56
2022/11/21 11:23:49;;;;;;;9.00;1.13;;;;;;;10.22;90.80;99091.72;5040115;28;20537;-56
2022/11/21 11:26:26;;;;;;;0.60;0.50;;;;;;;10.22;90.95;99079.28;5043956;28;20456;-56
2022/11/21 11:29:07;;;;;;;0.50;0.40;;;;;;;10.27;90.12;99066.66;5042706;28;20496;-56
2022/11/21 11:31:42;;;;;;;0.50;0.50;;;;;;;10.48;87.77;99069.22;5042261;28;20562;-56
2022/11/21 11:34:13;;;;;;;0.40;0.40;;;;;;;10.30;88.99;99053.25;5043542;28;20454;-56
2022/11/21 11:36:54;;;;;;;2.53;0.50;;;;;;;10.49;88.65;99045.25;5039853;28;20461;-56
2022/11/21 11:39:38;;;;;;;7.90;1.10;;;;;;;10.31;89.01;99047.00;5036769;28;20808;-56
2022/11/21 11:48:07;;;;;;;0.40;0.30;;;;;;;10.52;89.30;99036.25;5027883;28;20446;-56
2022/11/21 11:50:40;;;;;;;0.50;0.40;;;;;;;10.61;88.31;99031.38;5036811;28;20495;-56
2022/11/21 11:53:12;;;;;;;0.60;0.37;;;;;;;10.72;87.44;99025.53;5038843;28;21078;-56
2022/11/21 11:56:10;;;;;;;6.10;2.30;;;;;;;10.59;86.50;99019.97;5043278;28;20490;-56
2022/11/21 11:58:55;;;;;;;1.20;0.90;;;;;;;10.59;87.76;99021.75;5025707;28;20907;-56
2022/11/21 12:01:43;;;;;;;0.77;0.77;;;;;;;10.93;87.99;99012.94;5033451;28;20473;-56
2022/11/21 12:04:16;;;;;;;0.47;0.47;;;;;;;10.52;88.36;99010.56;5019511;28;20523;-57
2022/11/21 12:07:10;;;;;;;1.00;1.00;;;;;;;10.43;89.15;99011.03;5024952;28;20459;-56
2022/11/21 12:10:12;;;;;;;1.37;1.27;;;;;;;10.75;87.92;98996.13;5036149;28;20542;-56
2022/11/21 12:12:44;;;;;;;1.90;1.77;;;;;;;10.73;88.71;99002.47;5038109;28;20499;-56